sensor_id;sensor_type;location;lat;lon;timestamp;P1;durP1;ratioP1;P2;durP2;ratioP2
58581;SDS011;44361;51.476;5.700;2022-12-26T00:00:57;40.35;;;20.70;;
58581;SDS011;44361;51.476;5.700;2022-12-26T00:03:24;44.03;;;21.42;;
58581;SDS011;44361;51.476;5.700;2022-12-26T00:05:49;40.72;;;21.58;;
58581;SDS011;44361;51.476;5.700;2022-12-26T00:08:15;43.38;;;21.92;;
58581;SDS011;44361;51.476;5.700;2022-12-26T00:10:41;46.72;;;21.92;;
58581;SDS011;44361;51.476;5.700;2022-12-26T00:13:07;40.08;;;21.17;;
58581;SDS011;44361;51.476;5.700;2022-12-26T00:15:32;44.30;;;23.02;;
58581;SDS011;44361;51.476;5.700;2022-12-26T00:17:58;43.50;;;22.67;;
58581;SDS011;44361;51.476;5.700;2022-12-26T00:20:23;46.58;;;22.85;;
58581;SDS011;44361;51.476;5.700;2022-12-26T00:22:49;42.25;;;22.42;;
58581;SDS011;44361;51.476;5.700;2022-12-26T00:25:14;49.20;;;23.38;;
58581;SDS011;44361;51.476;5.700;2022-12-26T00:27:40;41.25;;;21.70;;
58581;SDS011;44361;51.476;5.700;2022-12-26T00:30:06;45.95;;;22.63;;
58581;SDS011;44361;51.476;5.700;2022-12-26T00:32:32;43.85;;;22.25;;
58581;SDS011;44361;51.476;5.700;2022-12-26T00:34:57;43.92;;;22.30;;
58581;SDS011;44361;51.476;5.700;2022-12-26T00:37:24;40.80;;;22.10;;
58581;SDS011;44361;51.476;5.700;2022-12-26T00:39:49;42.40;;;21.63;;
58581;SDS011;44361;51.476;5.700;2022-12-26T00:42:15;48.65;;;21.67;;
58581;SDS011;44361;51.476;5.700;2022-12-26T00:44:40;38.45;;;20.25;;
58581;SDS011;44361;51.476;5.700;2022-12-26T00:47:06;39.10;;;19.48;;
58581;SDS011;44361;51.476;5.700;2022-12-26T00:49:31;37.95;;;19.80;;
58581;SDS011;44361;51.476;5.700;2022-12-26T00:51:57;36.70;;;19.48;;
58581;SDS011;44361;51.476;5.700;2022-12-26T00:54:22;40.97;;;19.83;;
58581;SDS011;44361;51.476;5.700;2022-12-26T00:56:48;39.42;;;19.50;;
58581;SDS011;44361;51.476;5.700;2022-12-26T00:59:13;37.03;;;19.33;;
58581;SDS011;44361;51.476;5.700;2022-12-26T01:01:39;35.30;;;18.35;;
58581;SDS011;44361;51.476;5.700;2022-12-26T01:04:04;35.05;;;18.25;;
58581;SDS011;44361;51.476;5.700;2022-12-26T01:06:30;36.22;;;17.95;;
58581;SDS011;44361;51.476;5.700;2022-12-26T01:08:56;32.50;;;17.20;;
58581;SDS011;44361;51.476;5.700;2022-12-26T01:11:23;35.35;;;18.20;;
58581;SDS011;44361;51.476;5.700;2022-12-26T01:14:04;35.40;;;18.95;;
58581;SDS011;44361;51.476;5.700;2022-12-26T01:16:31;33.85;;;17.63;;
58581;SDS011;44361;51.476;5.700;2022-12-26T01:18:57;37.53;;;17.92;;
58581;SDS011;44361;51.476;5.700;2022-12-26T01:21:22;32.90;;;16.85;;
58581;SDS011;44361;51.476;5.700;2022-12-26T01:23:48;29.98;;;16.65;;
58581;SDS011;44361;51.476;5.700;2022-12-26T01:26:13;30.42;;;16.17;;
58581;SDS011;44361;51.476;5.700;2022-12-26T01:28:39;36.70;;;18.50;;
58581;SDS011;44361;51.476;5.700;2022-12-26T01:31:04;33.13;;;17.05;;
58581;SDS011;44361;51.476;5.700;2022-12-26T01:33:30;30.95;;;17.20;;
58581;SDS011;44361;51.476;5.700;2022-12-26T01:35:56;32.47;;;17.30;;
58581;SDS011;44361;51.476;5.700;2022-12-26T01:38:22;32.58;;;17.52;;
58581;SDS011;44361;51.476;5.700;2022-12-26T01:40:48;33.83;;;17.33;;
58581;SDS011;44361;51.476;5.700;2022-12-26T01:46:36;32.00;;;16.75;;
58581;SDS011;44361;51.476;5.700;2022-12-26T01:49:06;32.03;;;15.82;;
58581;SDS011;44361;51.476;5.700;2022-12-26T01:51:40;29.73;;;15.85;;
58581;SDS011;44361;51.476;5.700;2022-12-26T01:54:10;32.90;;;15.80;;
58581;SDS011;44361;51.476;5.700;2022-12-26T01:56:39;31.38;;;15.82;;
58581;SDS011;44361;51.476;5.700;2022-12-26T01:59:10;30.83;;;17.13;;
58581;SDS011;44361;51.476;5.700;2022-12-26T02:01:53;31.13;;;16.52;;
58581;SDS011;44361;51.476;5.700;2022-12-26T02:04:20;31.00;;;17.35;;
58581;SDS011;44361;51.476;5.700;2022-12-26T02:07:07;32.97;;;17.08;;
58581;SDS011;44361;51.476;5.700;2022-12-26T02:09:33;35.35;;;17.42;;
58581;SDS011;44361;51.476;5.700;2022-12-26T02:12:02;29.42;;;17.05;;
58581;SDS011;44361;51.476;5.700;2022-12-26T02:14:31;32.67;;;17.73;;
58581;SDS011;44361;51.476;5.700;2022-12-26T02:16:57;29.90;;;16.88;;
58581;SDS011;44361;51.476;5.700;2022-12-26T02:19:41;32.53;;;17.95;;
58581;SDS011;44361;51.476;5.700;2022-12-26T02:33:00;29.85;;;17.02;;
58581;SDS011;44361;51.476;5.700;2022-12-26T02:38:58;32.40;;;17.75;;
58581;SDS011;44361;51.476;5.700;2022-12-26T02:41:22;34.65;;;17.73;;
58581;SDS011;44361;51.476;5.700;2022-12-26T02:44:21;31.05;;;17.55;;
58581;SDS011;44361;51.476;5.700;2022-12-26T02:47:14;36.17;;;18.60;;
58581;SDS011;44361;51.476;5.700;2022-12-26T02:56:13;29.23;;;15.02;;
58581;SDS011;44361;51.476;5.700;2022-12-26T03:02:22;28.13;;;15.73;;
58581;SDS011;44361;51.476;5.700;2022-12-26T03:05:13;24.67;;;14.82;;
58581;SDS011;44361;51.476;5.700;2022-12-26T03:08:10;21.48;;;13.25;;
58581;SDS011;44361;51.476;5.700;2022-12-26T03:11:01;23.10;;;12.68;;
58581;SDS011;44361;51.476;5.700;2022-12-26T03:13:45;22.73;;;12.20;;
58581;SDS011;44361;51.476;5.700;2022-12-26T03:16:13;19.95;;;12.63;;
58581;SDS011;44361;51.476;5.700;2022-12-26T03:18:59;22.40;;;13.00;;
58581;SDS011;44361;51.476;5.700;2022-12-26T03:21:34;19.40;;;11.55;;
58581;SDS011;44361;51.476;5.700;2022-12-26T03:24:04;19.15;;;11.18;;
58581;SDS011;44361;51.476;5.700;2022-12-26T03:26:34;17.92;;;11.00;;
58581;SDS011;44361;51.476;5.700;2022-12-26T03:29:14;23.50;;;11.90;;
58581;SDS011;44361;51.476;5.700;2022-12-26T03:32:01;16.48;;;10.30;;
58581;SDS011;44361;51.476;5.700;2022-12-26T03:34:29;18.75;;;10.82;;
58581;SDS011;44361;51.476;5.700;2022-12-26T03:42:31;18.98;;;10.43;;
58581;SDS011;44361;51.476;5.700;2022-12-26T03:51:22;16.40;;;10.10;;
58581;SDS011;44361;51.476;5.700;2022-12-26T03:54:17;17.67;;;9.52;;
58581;SDS011;44361;51.476;5.700;2022-12-26T03:57:12;16.73;;;9.55;;
58581;SDS011;44361;51.476;5.700;2022-12-26T04:00:05;17.77;;;9.50;;
58581;SDS011;44361;51.476;5.700;2022-12-26T04:02:54;16.40;;;9.90;;
58581;SDS011;44361;51.476;5.700;2022-12-26T04:05:43;18.50;;;9.55;;
58581;SDS011;44361;51.476;5.700;2022-12-26T04:08:52;15.10;;;8.93;;
58581;SDS011;44361;51.476;5.700;2022-12-26T04:11:42;17.70;;;9.75;;
58581;SDS011;44361;51.476;5.700;2022-12-26T04:14:35;14.88;;;9.50;;
58581;SDS011;44361;51.476;5.700;2022-12-26T04:18:07;16.30;;;8.80;;
58581;SDS011;44361;51.476;5.700;2022-12-26T04:23:33;15.15;;;8.40;;
58581;SDS011;44361;51.476;5.700;2022-12-26T04:26:35;14.52;;;8.98;;
58581;SDS011;44361;51.476;5.700;2022-12-26T04:29:23;12.55;;;8.38;;
58581;SDS011;44361;51.476;5.700;2022-12-26T04:32:09;13.57;;;8.33;;
58581;SDS011;44361;51.476;5.700;2022-12-26T04:35:17;14.45;;;9.05;;
58581;SDS011;44361;51.476;5.700;2022-12-26T04:38:07;14.27;;;8.75;;
58581;SDS011;44361;51.476;5.700;2022-12-26T04:40:56;12.80;;;8.02;;
58581;SDS011;44361;51.476;5.700;2022-12-26T04:43:42;15.25;;;8.82;;
58581;SDS011;44361;51.476;5.700;2022-12-26T04:46:28;15.68;;;8.68;;
58581;SDS011;44361;51.476;5.700;2022-12-26T04:48:55;14.93;;;9.50;;
58581;SDS011;44361;51.476;5.700;2022-12-26T04:51:40;14.27;;;8.45;;
58581;SDS011;44361;51.476;5.700;2022-12-26T04:54:06;13.27;;;9.20;;
58581;SDS011;44361;51.476;5.700;2022-12-26T04:56:32;17.52;;;9.32;;
58581;SDS011;44361;51.476;5.700;2022-12-26T04:58:58;17.80;;;9.70;;
58581;SDS011;44361;51.476;5.700;2022-12-26T05:01:23;19.85;;;10.18;;
58581;SDS011;44361;51.476;5.700;2022-12-26T05:04:11;17.27;;;9.35;;
58581;SDS011;44361;51.476;5.700;2022-12-26T05:06:57;17.58;;;10.07;;
58581;SDS011;44361;51.476;5.700;2022-12-26T05:09:42;18.35;;;9.75;;
58581;SDS011;44361;51.476;5.700;2022-12-26T05:12:08;17.88;;;10.25;;
58581;SDS011;44361;51.476;5.700;2022-12-26T05:14:34;16.90;;;9.73;;
58581;SDS011;44361;51.476;5.700;2022-12-26T05:17:00;17.42;;;10.02;;
58581;SDS011;44361;51.476;5.700;2022-12-26T05:19:45;20.10;;;10.27;;
58581;SDS011;44361;51.476;5.700;2022-12-26T05:22:30;18.00;;;9.45;;
58581;SDS011;44361;51.476;5.700;2022-12-26T05:25:16;19.95;;;9.68;;
58581;SDS011;44361;51.476;5.700;2022-12-26T05:28:03;19.25;;;9.32;;
58581;SDS011;44361;51.476;5.700;2022-12-26T05:30:47;19.45;;;9.75;;
58581;SDS011;44361;51.476;5.700;2022-12-26T05:33:13;16.85;;;8.95;;
58581;SDS011;44361;51.476;5.700;2022-12-26T05:35:57;17.80;;;8.70;;
58581;SDS011;44361;51.476;5.700;2022-12-26T05:38:23;18.35;;;8.65;;
58581;SDS011;44361;51.476;5.700;2022-12-26T05:40:48;16.73;;;8.93;;
58581;SDS011;44361;51.476;5.700;2022-12-26T05:43:14;16.55;;;7.80;;
58581;SDS011;44361;51.476;5.700;2022-12-26T05:45:40;14.20;;;7.95;;
58581;SDS011;44361;51.476;5.700;2022-12-26T05:48:05;16.45;;;8.40;;
58581;SDS011;44361;51.476;5.700;2022-12-26T05:50:31;14.82;;;7.30;;
58581;SDS011;44361;51.476;5.700;2022-12-26T05:52:57;14.63;;;7.80;;
58581;SDS011;44361;51.476;5.700;2022-12-26T05:55:23;15.60;;;7.35;;
58581;SDS011;44361;51.476;5.700;2022-12-26T05:57:49;15.65;;;7.93;;
58581;SDS011;44361;51.476;5.700;2022-12-26T06:00:15;14.98;;;7.50;;
58581;SDS011;44361;51.476;5.700;2022-12-26T06:02:41;16.92;;;8.57;;
58581;SDS011;44361;51.476;5.700;2022-12-26T06:05:06;12.95;;;7.15;;
58581;SDS011;44361;51.476;5.700;2022-12-26T06:07:32;14.27;;;7.57;;
58581;SDS011;44361;51.476;5.700;2022-12-26T06:09:58;16.70;;;7.07;;
58581;SDS011;44361;51.476;5.700;2022-12-26T06:12:23;11.88;;;6.63;;
58581;SDS011;44361;51.476;5.700;2022-12-26T06:14:49;11.45;;;6.53;;
58581;SDS011;44361;51.476;5.700;2022-12-26T06:17:14;14.00;;;7.03;;
58581;SDS011;44361;51.476;5.700;2022-12-26T06:19:40;12.13;;;6.38;;
58581;SDS011;44361;51.476;5.700;2022-12-26T06:22:05;13.93;;;6.50;;
58581;SDS011;44361;51.476;5.700;2022-12-26T06:24:31;12.57;;;6.00;;
58581;SDS011;44361;51.476;5.700;2022-12-26T06:26:56;11.25;;;5.97;;
58581;SDS011;44361;51.476;5.700;2022-12-26T06:29:22;11.55;;;6.25;;
58581;SDS011;44361;51.476;5.700;2022-12-26T06:31:48;9.15;;;5.47;;
58581;SDS011;44361;51.476;5.700;2022-12-26T06:34:13;11.10;;;5.72;;
58581;SDS011;44361;51.476;5.700;2022-12-26T06:36:39;9.75;;;5.97;;
58581;SDS011;44361;51.476;5.700;2022-12-26T06:39:04;11.57;;;5.80;;
58581;SDS011;44361;51.476;5.700;2022-12-26T06:41:30;10.10;;;5.20;;
58581;SDS011;44361;51.476;5.700;2022-12-26T06:43:55;15.55;;;6.13;;
58581;SDS011;44361;51.476;5.700;2022-12-26T06:46:21;10.45;;;5.70;;
58581;SDS011;44361;51.476;5.700;2022-12-26T06:48:49;8.93;;;5.07;;
58581;SDS011;44361;51.476;5.700;2022-12-26T06:51:16;8.60;;;4.93;;
58581;SDS011;44361;51.476;5.700;2022-12-26T06:53:43;9.77;;;4.95;;
58581;SDS011;44361;51.476;5.700;2022-12-26T06:56:10;8.27;;;5.05;;
58581;SDS011;44361;51.476;5.700;2022-12-26T06:58:44;10.05;;;4.70;;
58581;SDS011;44361;51.476;5.700;2022-12-26T07:01:10;8.82;;;4.82;;
58581;SDS011;44361;51.476;5.700;2022-12-26T07:03:41;12.75;;;5.78;;
58581;SDS011;44361;51.476;5.700;2022-12-26T07:06:09;8.50;;;5.47;;
58581;SDS011;44361;51.476;5.700;2022-12-26T07:08:40;10.70;;;5.47;;
58581;SDS011;44361;51.476;5.700;2022-12-26T07:11:11;13.40;;;5.30;;
58581;SDS011;44361;51.476;5.700;2022-12-26T07:13:38;9.27;;;5.60;;
58581;SDS011;44361;51.476;5.700;2022-12-26T07:16:04;7.95;;;5.20;;
58581;SDS011;44361;51.476;5.700;2022-12-26T07:18:29;10.50;;;5.60;;
58581;SDS011;44361;51.476;5.700;2022-12-26T07:20:55;10.18;;;5.38;;
58581;SDS011;44361;51.476;5.700;2022-12-26T07:23:20;7.30;;;5.03;;
58581;SDS011;44361;51.476;5.700;2022-12-26T07:25:46;10.65;;;5.63;;
58581;SDS011;44361;51.476;5.700;2022-12-26T07:28:13;7.80;;;5.00;;
58581;SDS011;44361;51.476;5.700;2022-12-26T07:30:44;7.82;;;5.07;;
58581;SDS011;44361;51.476;5.700;2022-12-26T07:33:11;7.97;;;4.88;;
58581;SDS011;44361;51.476;5.700;2022-12-26T07:35:36;9.63;;;5.20;;
58581;SDS011;44361;51.476;5.700;2022-12-26T07:38:02;11.55;;;5.18;;
58581;SDS011;44361;51.476;5.700;2022-12-26T07:40:27;7.28;;;4.95;;
58581;SDS011;44361;51.476;5.700;2022-12-26T07:42:53;9.05;;;5.47;;
58581;SDS011;44361;51.476;5.700;2022-12-26T07:45:19;10.68;;;4.90;;
58581;SDS011;44361;51.476;5.700;2022-12-26T07:47:44;9.23;;;5.18;;
58581;SDS011;44361;51.476;5.700;2022-12-26T07:50:10;8.02;;;5.03;;
58581;SDS011;44361;51.476;5.700;2022-12-26T07:52:35;9.65;;;5.20;;
58581;SDS011;44361;51.476;5.700;2022-12-26T07:55:01;9.93;;;4.82;;
58581;SDS011;44361;51.476;5.700;2022-12-26T07:57:28;10.27;;;5.20;;
58581;SDS011;44361;51.476;5.700;2022-12-26T07:59:54;9.07;;;4.70;;
58581;SDS011;44361;51.476;5.700;2022-12-26T08:02:19;7.45;;;4.43;;
58581;SDS011;44361;51.476;5.700;2022-12-26T08:04:45;9.32;;;4.88;;
58581;SDS011;44361;51.476;5.700;2022-12-26T08:07:10;7.88;;;4.15;;
58581;SDS011;44361;51.476;5.700;2022-12-26T08:09:36;6.57;;;4.32;;
58581;SDS011;44361;51.476;5.700;2022-12-26T08:12:03;13.65;;;4.80;;
58581;SDS011;44361;51.476;5.700;2022-12-26T08:14:29;10.75;;;4.57;;
58581;SDS011;44361;51.476;5.700;2022-12-26T08:16:54;8.98;;;3.85;;
58581;SDS011;44361;51.476;5.700;2022-12-26T08:19:20;10.82;;;4.55;;
58581;SDS011;44361;51.476;5.700;2022-12-26T08:21:45;7.78;;;4.38;;
58581;SDS011;44361;51.476;5.700;2022-12-26T08:24:11;8.27;;;4.00;;
58581;SDS011;44361;51.476;5.700;2022-12-26T08:26:37;8.25;;;3.42;;
58581;SDS011;44361;51.476;5.700;2022-12-26T08:29:02;6.93;;;3.92;;
58581;SDS011;44361;51.476;5.700;2022-12-26T08:31:28;7.38;;;3.67;;
58581;SDS011;44361;51.476;5.700;2022-12-26T08:33:54;4.20;;;3.47;;
58581;SDS011;44361;51.476;5.700;2022-12-26T08:36:21;9.48;;;4.25;;
58581;SDS011;44361;51.476;5.700;2022-12-26T08:38:47;11.27;;;3.55;;
58581;SDS011;44361;51.476;5.700;2022-12-26T08:41:12;11.57;;;3.50;;
58581;SDS011;44361;51.476;5.700;2022-12-26T08:43:38;8.27;;;3.58;;
58581;SDS011;44361;51.476;5.700;2022-12-26T08:46:05;6.78;;;3.22;;
58581;SDS011;44361;51.476;5.700;2022-12-26T08:48:33;5.38;;;2.83;;
58581;SDS011;44361;51.476;5.700;2022-12-26T08:51:00;5.75;;;2.90;;
58581;SDS011;44361;51.476;5.700;2022-12-26T08:53:28;8.18;;;2.97;;
58581;SDS011;44361;51.476;5.700;2022-12-26T08:55:56;3.58;;;2.72;;
58581;SDS011;44361;51.476;5.700;2022-12-26T08:58:23;10.18;;;2.90;;
58581;SDS011;44361;51.476;5.700;2022-12-26T09:00:49;3.85;;;2.42;;
58581;SDS011;44361;51.476;5.700;2022-12-26T09:03:15;4.85;;;2.10;;
58581;SDS011;44361;51.476;5.700;2022-12-26T09:05:41;6.13;;;2.10;;
58581;SDS011;44361;51.476;5.700;2022-12-26T09:08:06;5.03;;;2.03;;
58581;SDS011;44361;51.476;5.700;2022-12-26T09:10:32;4.93;;;1.65;;
58581;SDS011;44361;51.476;5.700;2022-12-26T09:12:58;4.90;;;1.58;;
58581;SDS011;44361;51.476;5.700;2022-12-26T09:15:23;3.85;;;1.63;;
58581;SDS011;44361;51.476;5.700;2022-12-26T09:17:49;6.88;;;1.65;;
58581;SDS011;44361;51.476;5.700;2022-12-26T09:20:14;3.65;;;0.98;;
58581;SDS011;44361;51.476;5.700;2022-12-26T09:22:40;4.40;;;1.23;;
58581;SDS011;44361;51.476;5.700;2022-12-26T09:25:14;3.95;;;1.40;;
58581;SDS011;44361;51.476;5.700;2022-12-26T09:27:40;8.02;;;0.80;;
58581;SDS011;44361;51.476;5.700;2022-12-26T09:30:06;6.18;;;1.27;;
58581;SDS011;44361;51.476;5.700;2022-12-26T09:32:33;5.00;;;1.05;;
58581;SDS011;44361;51.476;5.700;2022-12-26T09:34:59;6.15;;;1.08;;
58581;SDS011;44361;51.476;5.700;2022-12-26T09:37:25;1.73;;;1.00;;
58581;SDS011;44361;51.476;5.700;2022-12-26T09:39:50;3.05;;;0.90;;
58581;SDS011;44361;51.476;5.700;2022-12-26T09:42:26;3.38;;;1.13;;
58581;SDS011;44361;51.476;5.700;2022-12-26T09:45:13;5.15;;;1.00;;
58581;SDS011;44361;51.476;5.700;2022-12-26T09:47:44;7.47;;;0.70;;
58581;SDS011;44361;51.476;5.700;2022-12-26T09:50:33;5.93;;;1.20;;
58581;SDS011;44361;51.476;5.700;2022-12-26T09:53:13;3.03;;;0.77;;
58581;SDS011;44361;51.476;5.700;2022-12-26T09:56:15;2.40;;;0.90;;
58581;SDS011;44361;51.476;5.700;2022-12-26T09:58:50;2.53;;;1.00;;
58581;SDS011;44361;51.476;5.700;2022-12-26T10:01:21;3.58;;;1.00;;
58581;SDS011;44361;51.476;5.700;2022-12-26T10:03:53;2.13;;;0.90;;
58581;SDS011;44361;51.476;5.700;2022-12-26T10:06:21;3.85;;;1.08;;
58581;SDS011;44361;51.476;5.700;2022-12-26T10:09:13;2.55;;;0.90;;
58581;SDS011;44361;51.476;5.700;2022-12-26T10:11:46;6.32;;;1.00;;
58581;SDS011;44361;51.476;5.700;2022-12-26T10:14:39;4.45;;;1.25;;
58581;SDS011;44361;51.476;5.700;2022-12-26T10:22:56;5.95;;;1.00;;
58581;SDS011;44361;51.476;5.700;2022-12-26T10:28:35;4.47;;;1.08;;
58581;SDS011;44361;51.476;5.700;2022-12-26T10:31:05;5.25;;;0.93;;
58581;SDS011;44361;51.476;5.700;2022-12-26T10:34:05;2.97;;;1.08;;
58581;SDS011;44361;51.476;5.700;2022-12-26T10:36:34;4.13;;;0.90;;
58581;SDS011;44361;51.476;5.700;2022-12-26T10:39:04;2.50;;;0.90;;
58581;SDS011;44361;51.476;5.700;2022-12-26T10:44:08;7.03;;;1.00;;
58581;SDS011;44361;51.476;5.700;2022-12-26T10:49:38;3.65;;;1.00;;
58581;SDS011;44361;51.476;5.700;2022-12-26T10:52:03;3.63;;;1.00;;
58581;SDS011;44361;51.476;5.700;2022-12-26T10:54:29;3.45;;;1.10;;
58581;SDS011;44361;51.476;5.700;2022-12-26T10:56:55;3.95;;;1.13;;
58581;SDS011;44361;51.476;5.700;2022-12-26T10:59:26;4.93;;;1.05;;
58581;SDS011;44361;51.476;5.700;2022-12-26T11:02:21;4.70;;;0.90;;
58581;SDS011;44361;51.476;5.700;2022-12-26T11:07:34;3.72;;;0.80;;
58581;SDS011;44361;51.476;5.700;2022-12-26T11:10:02;4.00;;;0.70;;
58581;SDS011;44361;51.476;5.700;2022-12-26T11:12:41;5.82;;;0.82;;
58581;SDS011;44361;51.476;5.700;2022-12-26T11:15:34;3.47;;;0.85;;
58581;SDS011;44361;51.476;5.700;2022-12-26T11:21:18;5.88;;;1.00;;
58581;SDS011;44361;51.476;5.700;2022-12-26T11:23:48;3.13;;;0.95;;
58581;SDS011;44361;51.476;5.700;2022-12-26T11:26:26;5.25;;;1.02;;
58581;SDS011;44361;51.476;5.700;2022-12-26T11:29:13;5.82;;;0.93;;
58581;SDS011;44361;51.476;5.700;2022-12-26T11:31:39;10.60;;;1.02;;
58581;SDS011;44361;51.476;5.700;2022-12-26T11:34:08;8.18;;;1.20;;
58581;SDS011;44361;51.476;5.700;2022-12-26T11:36:37;5.45;;;1.10;;
58581;SDS011;44361;51.476;5.700;2022-12-26T11:39:21;10.75;;;1.95;;
58581;SDS011;44361;51.476;5.700;2022-12-26T11:41:50;7.10;;;0.98;;
58581;SDS011;44361;51.476;5.700;2022-12-26T11:44:23;11.48;;;1.52;;
58581;SDS011;44361;51.476;5.700;2022-12-26T11:46:54;11.70;;;1.30;;
58581;SDS011;44361;51.476;5.700;2022-12-26T11:49:29;9.55;;;1.73;;
58581;SDS011;44361;51.476;5.700;2022-12-26T11:54:57;7.90;;;1.40;;
58581;SDS011;44361;51.476;5.700;2022-12-26T11:57:26;6.05;;;1.40;;
58581;SDS011;44361;51.476;5.700;2022-12-26T11:59:52;6.82;;;1.88;;
58581;SDS011;44361;51.476;5.700;2022-12-26T12:02:24;13.65;;;2.20;;
58581;SDS011;44361;51.476;5.700;2022-12-26T12:04:50;13.27;;;1.33;;
58581;SDS011;44361;51.476;5.700;2022-12-26T12:12:34;8.38;;;1.65;;
58581;SDS011;44361;51.476;5.700;2022-12-26T12:18:14;11.30;;;1.58;;
58581;SDS011;44361;51.476;5.700;2022-12-26T12:21:14;15.02;;;2.08;;
58581;SDS011;44361;51.476;5.700;2022-12-26T12:26:38;10.82;;;1.70;;
58581;SDS011;44361;51.476;5.700;2022-12-26T12:29:31;7.03;;;1.55;;
58581;SDS011;44361;51.476;5.700;2022-12-26T12:32:08;14.30;;;2.28;;
58581;SDS011;44361;51.476;5.700;2022-12-26T12:34:51;6.90;;;1.73;;
58581;SDS011;44361;51.476;5.700;2022-12-26T12:43:55;5.88;;;1.58;;
58581;SDS011;44361;51.476;5.700;2022-12-26T12:52:44;5.78;;;1.83;;
58581;SDS011;44361;51.476;5.700;2022-12-26T13:00:41;9.68;;;1.98;;
58581;SDS011;44361;51.476;5.700;2022-12-26T13:03:24;6.78;;;1.60;;
58581;SDS011;44361;51.476;5.700;2022-12-26T13:06:11;8.33;;;1.70;;
58581;SDS011;44361;51.476;5.700;2022-12-26T13:08:51;7.10;;;2.25;;
58581;SDS011;44361;51.476;5.700;2022-12-26T13:11:37;11.82;;;2.55;;
58581;SDS011;44361;51.476;5.700;2022-12-26T13:14:25;7.82;;;2.22;;
58581;SDS011;44361;51.476;5.700;2022-12-26T13:16:56;10.65;;;2.65;;
58581;SDS011;44361;51.476;5.700;2022-12-26T13:19:28;14.75;;;2.60;;
58581;SDS011;44361;51.476;5.700;2022-12-26T13:22:03;9.13;;;1.50;;
58581;SDS011;44361;51.476;5.700;2022-12-26T13:24:37;9.32;;;1.50;;
58581;SDS011;44361;51.476;5.700;2022-12-26T13:29:50;8.40;;;1.30;;
58581;SDS011;44361;51.476;5.700;2022-12-26T13:32:23;5.82;;;1.08;;
58581;SDS011;44361;51.476;5.700;2022-12-26T13:34:52;1.10;;;0.57;;
58581;SDS011;44361;51.476;5.700;2022-12-26T13:40:24;5.68;;;1.08;;
58581;SDS011;44361;51.476;5.700;2022-12-26T13:42:53;6.22;;;1.30;;
58581;SDS011;44361;51.476;5.700;2022-12-26T13:45:50;3.88;;;1.10;;
58581;SDS011;44361;51.476;5.700;2022-12-26T13:50:52;5.05;;;0.90;;
58581;SDS011;44361;51.476;5.700;2022-12-26T13:55:55;5.40;;;1.15;;
58581;SDS011;44361;51.476;5.700;2022-12-26T14:04:25;5.40;;;1.35;;
58581;SDS011;44361;51.476;5.700;2022-12-26T14:07:27;4.88;;;1.38;;
58581;SDS011;44361;51.476;5.700;2022-12-26T14:15:53;6.45;;;0.90;;
58581;SDS011;44361;51.476;5.700;2022-12-26T14:18:33;4.32;;;1.20;;
58581;SDS011;44361;51.476;5.700;2022-12-26T14:27:22;7.57;;;2.15;;
58581;SDS011;44361;51.476;5.700;2022-12-26T14:30:17;11.30;;;1.45;;
58581;SDS011;44361;51.476;5.700;2022-12-26T14:33:05;7.18;;;1.40;;
58581;SDS011;44361;51.476;5.700;2022-12-26T14:38:58;3.80;;;0.80;;
58581;SDS011;44361;51.476;5.700;2022-12-26T14:44:52;6.10;;;1.20;;
58581;SDS011;44361;51.476;5.700;2022-12-26T14:47:35;5.20;;;1.60;;
58581;SDS011;44361;51.476;5.700;2022-12-26T14:58:48;3.75;;;1.23;;
58581;SDS011;44361;51.476;5.700;2022-12-26T15:28:53;5.88;;;1.10;;
58581;SDS011;44361;51.476;5.700;2022-12-26T15:31:49;6.45;;;1.27;;
58581;SDS011;44361;51.476;5.700;2022-12-26T15:34:24;5.38;;;1.48;;
58581;SDS011;44361;51.476;5.700;2022-12-26T15:42:43;7.72;;;2.92;;
58581;SDS011;44361;51.476;5.700;2022-12-26T15:50:56;9.35;;;2.00;;
58581;SDS011;44361;51.476;5.700;2022-12-26T15:56:20;4.38;;;1.63;;
58581;SDS011;44361;51.476;5.700;2022-12-26T16:02:12;8.77;;;1.70;;
58581;SDS011;44361;51.476;5.700;2022-12-26T16:07:38;7.25;;;1.92;;
58581;SDS011;44361;51.476;5.700;2022-12-26T16:15:23;8.18;;;2.33;;
58581;SDS011;44361;51.476;5.700;2022-12-26T16:17:49;8.68;;;2.20;;
58581;SDS011;44361;51.476;5.700;2022-12-26T16:20:19;4.05;;;1.40;;
58581;SDS011;44361;51.476;5.700;2022-12-26T16:23:10;8.30;;;1.50;;
58581;SDS011;44361;51.476;5.700;2022-12-26T16:25:44;10.32;;;1.70;;
58581;SDS011;44361;51.476;5.700;2022-12-26T16:28:14;12.77;;;1.90;;
58581;SDS011;44361;51.476;5.700;2022-12-26T16:30:43;12.65;;;1.92;;
58581;SDS011;44361;51.476;5.700;2022-12-26T16:33:10;10.50;;;2.42;;
58581;SDS011;44361;51.476;5.700;2022-12-26T16:35:38;5.80;;;1.50;;
58581;SDS011;44361;51.476;5.700;2022-12-26T16:38:07;6.65;;;1.33;;
58581;SDS011;44361;51.476;5.700;2022-12-26T16:45:41;4.45;;;1.25;;
58581;SDS011;44361;51.476;5.700;2022-12-26T16:48:10;9.25;;;1.35;;
58581;SDS011;44361;51.476;5.700;2022-12-26T16:50:44;5.30;;;1.23;;
58581;SDS011;44361;51.476;5.700;2022-12-26T16:53:17;7.60;;;1.55;;
58581;SDS011;44361;51.476;5.700;2022-12-26T16:55:53;10.80;;;1.50;;
58581;SDS011;44361;51.476;5.700;2022-12-26T16:58:38;8.88;;;2.28;;
58581;SDS011;44361;51.476;5.700;2022-12-26T17:03:39;7.93;;;2.33;;
58581;SDS011;44361;51.476;5.700;2022-12-26T17:06:36;8.18;;;2.45;;
58581;SDS011;44361;51.476;5.700;2022-12-26T17:09:08;10.65;;;2.50;;
58581;SDS011;44361;51.476;5.700;2022-12-26T17:11:39;5.57;;;2.00;;
58581;SDS011;44361;51.476;5.700;2022-12-26T17:14:21;12.73;;;2.83;;
58581;SDS011;44361;51.476;5.700;2022-12-26T17:16:57;8.02;;;2.00;;
58581;SDS011;44361;51.476;5.700;2022-12-26T17:19:26;6.00;;;1.90;;
58581;SDS011;44361;51.476;5.700;2022-12-26T17:24:37;9.13;;;1.53;;
58581;SDS011;44361;51.476;5.700;2022-12-26T17:27:22;5.43;;;1.85;;
58581;SDS011;44361;51.476;5.700;2022-12-26T17:29:56;7.97;;;1.88;;
58581;SDS011;44361;51.476;5.700;2022-12-26T17:35:09;9.63;;;2.63;;
58581;SDS011;44361;51.476;5.700;2022-12-26T17:37:38;7.93;;;2.33;;
58581;SDS011;44361;51.476;5.700;2022-12-26T17:40:06;7.88;;;2.20;;
58581;SDS011;44361;51.476;5.700;2022-12-26T17:42:46;12.02;;;2.60;;
58581;SDS011;44361;51.476;5.700;2022-12-26T17:45:22;6.22;;;2.20;;
58581;SDS011;44361;51.476;5.700;2022-12-26T17:47:50;14.18;;;3.25;;
58581;SDS011;44361;51.476;5.700;2022-12-26T17:50:17;13.52;;;2.25;;
58581;SDS011;44361;51.476;5.700;2022-12-26T17:52:42;14.38;;;2.30;;
58581;SDS011;44361;51.476;5.700;2022-12-26T17:55:16;11.40;;;2.50;;
58581;SDS011;44361;51.476;5.700;2022-12-26T17:57:45;8.52;;;2.30;;
58581;SDS011;44361;51.476;5.700;2022-12-26T18:00:15;10.82;;;2.53;;
58581;SDS011;44361;51.476;5.700;2022-12-26T18:02:42;6.75;;;2.42;;
58581;SDS011;44361;51.476;5.700;2022-12-26T18:05:08;14.40;;;2.42;;
58581;SDS011;44361;51.476;5.700;2022-12-26T18:07:33;7.75;;;3.03;;
58581;SDS011;44361;51.476;5.700;2022-12-26T18:09:59;12.20;;;2.45;;
58581;SDS011;44361;51.476;5.700;2022-12-26T18:12:26;9.25;;;3.20;;
58581;SDS011;44361;51.476;5.700;2022-12-26T18:14:51;12.38;;;2.47;;
58581;SDS011;44361;51.476;5.700;2022-12-26T18:17:17;9.05;;;2.90;;
58581;SDS011;44361;51.476;5.700;2022-12-26T18:19:43;6.70;;;2.65;;
58581;SDS011;44361;51.476;5.700;2022-12-26T18:22:13;11.30;;;2.42;;
58581;SDS011;44361;51.476;5.700;2022-12-26T18:24:42;10.13;;;2.80;;
58581;SDS011;44361;51.476;5.700;2022-12-26T18:27:28;13.90;;;2.88;;
58581;SDS011;44361;51.476;5.700;2022-12-26T18:29:56;9.38;;;2.22;;
58581;SDS011;44361;51.476;5.700;2022-12-26T18:32:27;14.98;;;2.67;;
58581;SDS011;44361;51.476;5.700;2022-12-26T18:34:55;9.27;;;2.72;;